Time;durP1;ratioP1;P1;durP2;ratioP2;P2;SDS_P1;SDS_P2;PMS_P1;PMS_P2;Temp;Humidity;BMP_temperature;BMP_pressure;BME280_temperature;BME280_humidity;BME280_pressure;Samples;Min_cycle;Max_cycle;Signal;HPM_P1;HPM_P2
2023/12/16 00:00:43;;;;;;;10.00;3.30;;;;;;;11.55;35.13;101853.67;105587;1254;61686;-62
2023/12/16 00:03:13;;;;;;;8.90;3.70;;;;;;;11.56;35.08;101853.81;105527;1256;64083;-61
2023/12/16 00:05:40;;;;;;;8.30;3.70;;;;;;;11.57;35.12;101852.15;105546;1254;60452;-62
2023/12/16 00:08:07;;;;;;;8.50;3.00;;;;;;;11.60;35.21;101854.05;105471;1254;60492;-61
2023/12/16 00:10:34;;;;;;;7.20;2.60;;;;;;;11.64;35.12;101853.31;105787;1256;65305;-62
2023/12/16 00:13:01;;;;;;;8.00;3.10;;;;;;;11.67;35.16;101856.61;105783;1256;61559;-60
2023/12/16 00:15:29;;;;;;;11.40;2.40;;;;;;;11.66;35.09;101863.52;105768;1254;62724;-60
2023/12/16 00:17:56;;;;;;;6.50;2.30;;;;;;;11.71;34.96;101867.81;105456;1254;60478;-60
2023/12/16 00:20:23;;;;;;;6.10;1.70;;;;;;;11.82;34.90;101872.42;105743;1254;60611;-62
2023/12/16 00:22:49;;;;;;;6.80;1.80;;;;;;;11.93;34.87;101866.45;105491;1256;65686;-63
2023/12/16 00:25:16;;;;;;;9.00;2.70;;;;;;;12.01;34.71;101867.75;105474;1254;61703;-62
2023/12/16 00:27:43;;;;;;;9.30;2.20;;;;;;;12.05;34.67;101865.22;105513;1254;64129;-61
2023/12/16 00:30:10;;;;;;;7.50;2.10;;;;;;;12.08;34.55;101866.73;105454;1254;60414;-62
2023/12/16 00:32:39;;;;;;;9.70;2.80;;;;;;;12.11;34.61;101861.15;105566;1257;60454;-59
2023/12/16 00:35:07;;;;;;;10.80;3.80;;;;;;;12.16;34.50;101858.02;105634;1254;65249;-61
2023/12/16 00:37:34;;;;;;;13.00;3.50;;;;;;;12.18;34.42;101856.49;106406;1254;61454;-62
2023/12/16 00:40:02;;;;;;;8.20;3.50;;;;;;;12.18;34.48;101859.48;105698;1255;64576;-60
2023/12/16 00:42:30;;;;;;;15.20;5.90;;;;;;;12.20;34.46;101860.25;105774;1260;60546;-58
2023/12/16 00:44:57;;;;;;;9.40;3.70;;;;;;;12.16;34.41;101871.19;105452;1253;60447;-60
2023/12/16 00:47:24;;;;;;;9.80;4.10;;;;;;;12.13;34.30;101876.50;105869;1258;64889;-61
2023/12/16 00:49:51;;;;;;;7.30;3.10;;;;;;;12.06;34.29;101877.45;106761;1256;61652;-61
2023/12/16 00:52:18;;;;;;;6.90;3.20;;;;;;;11.98;34.45;101866.30;105476;1256;64004;-62
2023/12/16 00:54:45;;;;;;;9.00;2.60;;;;;;;11.96;34.53;101865.56;105465;1254;60450;-61
2023/12/16 00:57:12;;;;;;;6.00;2.50;;;;;;;11.97;34.52;101863.63;105437;1253;60584;-65
2023/12/16 00:59:39;;;;;;;7.30;3.10;;;;;;;11.96;34.56;101862.41;105542;1257;64991;-64
2023/12/16 01:02:07;;;;;;;10.30;3.30;;;;;;;11.97;34.59;101862.91;105488;1257;61548;-64
2023/12/16 01:04:34;;;;;;;10.40;2.60;;;;;;;11.97;34.65;101859.19;106521;1257;64089;-65
2023/12/16 01:07:02;;;;;;;4.80;1.60;;;;;;;11.98;34.69;101860.34;105769;1257;61004;-64
2023/12/16 01:09:29;;;;;;;6.60;2.50;;;;;;;12.00;34.62;101858.48;105838;1253;60498;-64
2023/12/16 01:11:56;;;;;;;6.10;2.30;;;;;;;12.01;34.65;101860.73;105912;1259;65232;-63
2023/12/16 01:14:22;;;;;;;5.90;1.40;;;;;;;12.03;34.60;101856.33;106112;1258;61683;-64
2023/12/16 01:16:49;;;;;;;5.90;2.30;;;;;;;12.16;34.50;101851.35;106058;1257;73081;-64
2023/12/16 01:19:16;;;;;;;6.00;1.50;;;;;;;12.25;34.46;101853.05;106046;1257;60479;-64
2023/12/16 01:21:43;;;;;;;5.90;1.80;;;;;;;12.36;34.30;101849.14;106199;1254;60579;-60
2023/12/16 01:24:10;;;;;;;7.50;2.30;;;;;;;12.46;34.27;101851.88;105535;1259;65208;-64
2023/12/16 01:26:37;;;;;;;11.20;3.30;;;;;;;12.51;34.15;101850.15;105588;1254;61715;-64
2023/12/16 01:29:04;;;;;;;7.00;2.70;;;;;;;12.53;34.14;101848.99;105656;1260;64443;-64
2023/12/16 01:31:31;;;;;;;6.30;2.00;;;;;;;12.51;34.20;101849.26;106289;1254;60633;-63
2023/12/16 01:33:58;;;;;;;4.90;2.00;;;;;;;12.54;34.20;101850.88;105842;1258;60403;-64
2023/12/16 01:36:25;;;;;;;6.20;2.80;;;;;;;12.51;34.08;101851.20;105925;1257;65219;-65
2023/12/16 01:38:52;;;;;;;9.20;2.40;;;;;;;12.42;34.06;101836.30;106042;1258;61719;-62
2023/12/16 01:41:19;;;;;;;5.00;1.70;;;;;;;12.33;34.14;101837.42;106121;1257;63846;-65
2023/12/16 01:43:45;;;;;;;6.60;2.20;;;;;;;12.29;34.26;101844.37;105514;1259;60542;-63
2023/12/16 01:46:12;;;;;;;5.10;2.30;;;;;;;12.28;34.30;101844.23;105517;1254;60551;-64
2023/12/16 01:48:40;;;;;;;6.60;3.50;;;;;;;12.24;34.18;101843.92;105380;1258;65233;-63
2023/12/16 01:51:07;;;;;;;6.10;2.20;;;;;;;12.16;34.30;101853.99;105766;1257;61443;-66
2023/12/16 01:53:35;;;;;;;7.70;2.40;;;;;;;12.07;34.38;101852.93;105709;1259;64330;-64
2023/12/16 01:56:01;;;;;;;9.70;2.00;;;;;;;11.99;34.54;101849.91;105623;1259;60484;-64
2023/12/16 01:58:28;;;;;;;6.80;2.20;;;;;;;11.95;34.68;101850.69;105831;1259;60459;-65
2023/12/16 02:00:55;;;;;;;7.00;2.00;;;;;;;11.91;34.71;101853.21;105517;1258;65240;-64
2023/12/16 02:03:22;;;;;;;6.70;1.80;;;;;;;11.89;34.70;101854.70;106942;1256;61721;-64
2023/12/16 02:05:49;;;;;;;5.40;1.20;;;;;;;11.95;34.70;101854.74;106137;1257;64056;-64
2023/12/16 02:08:16;;;;;;;5.00;1.60;;;;;;;12.01;34.74;101855.59;105523;1257;60594;-64
2023/12/16 02:10:43;;;;;;;5.60;1.60;;;;;;;12.10;34.65;101851.02;105569;1254;60546;-65
2023/12/16 02:13:10;;;;;;;5.10;2.10;;;;;;;12.18;34.75;101853.83;105564;1256;65275;-64
2023/12/16 02:15:37;;;;;;;4.50;1.20;;;;;;;12.26;34.52;101856.36;105476;1255;61628;-64
2023/12/16 02:18:04;;;;;;;7.80;2.30;;;;;;;12.30;34.48;101864.19;105534;1261;64123;-63
2023/12/16 02:20:31;;;;;;;5.90;2.00;;;;;;;12.32;34.46;101870.89;105703;1260;61760;-63
2023/12/16 02:22:59;;;;;;;6.00;3.00;;;;;;;12.31;34.34;101874.85;105524;1254;60534;-64
2023/12/16 02:25:26;;;;;;;6.00;1.80;;;;;;;12.25;34.35;101880.13;105712;1259;65795;-63
2023/12/16 02:27:52;;;;;;;5.90;2.20;;;;;;;12.18;34.47;101875.30;105497;1257;61585;-63
2023/12/16 02:30:20;;;;;;;5.90;2.40;;;;;;;12.14;34.54;101876.46;105462;1259;64014;-63
2023/12/16 02:32:47;;;;;;;5.80;1.70;;;;;;;12.14;34.64;101882.60;106072;1254;60568;-61
2023/12/16 02:35:14;;;;;;;10.20;3.00;;;;;;;12.12;34.68;101882.55;105527;1257;60549;-61
2023/12/16 02:37:41;;;;;;;7.10;1.70;;;;;;;12.07;34.68;101879.83;105510;1258;65231;-62
2023/12/16 02:40:09;;;;;;;5.20;1.70;;;;;;;12.02;34.70;101875.75;105740;1259;61561;-61
2023/12/16 02:42:36;;;;;;;6.00;2.60;;;;;;;11.99;34.85;101874.19;105701;1256;64005;-64
2023/12/16 02:45:04;;;;;;;7.60;2.70;;;;;;;11.97;34.94;101873.45;105636;1258;60361;-63
2023/12/16 02:47:31;;;;;;;6.70;2.80;;;;;;;12.00;34.93;101874.80;105820;1257;60476;-62
2023/12/16 02:49:58;;;;;;;6.70;2.10;;;;;;;12.06;34.93;101882.94;105858;1257;64879;-63
2023/12/16 02:52:25;;;;;;;4.70;1.50;;;;;;;12.08;34.89;101884.91;105972;1257;61627;-61
2023/12/16 02:54:52;;;;;;;4.40;1.00;;;;;;;12.15;34.87;101889.20;105525;1259;64039;-62
2023/12/16 02:57:18;;;;;;;6.50;2.00;;;;;;;12.26;34.73;101892.39;106099;1257;61564;-63
2023/12/16 02:59:45;;;;;;;4.80;1.40;;;;;;;12.36;34.68;101894.41;105536;1255;60440;-63
2023/12/16 03:02:12;;;;;;;5.40;1.90;;;;;;;12.46;34.66;101896.77;105513;1260;65565;-64
2023/12/16 03:04:39;;;;;;;5.50;1.60;;;;;;;12.51;34.52;101895.58;105578;1259;62203;-63
2023/12/16 03:07:06;;;;;;;7.70;2.60;;;;;;;12.51;34.53;101896.30;105467;1257;64024;-64
2023/12/16 03:09:33;;;;;;;5.50;2.60;;;;;;;12.50;34.51;101898.99;105724;1255;60465;-63
2023/12/16 03:12:04;;;;;;;8.40;4.40;;;;;;;12.46;34.60;101893.40;105868;1256;60450;-63
2023/12/16 03:14:31;;;;;;;8.00;2.60;;;;;;;12.45;34.74;101890.27;105752;1257;65601;-65
2023/12/16 03:16:57;;;;;;;5.90;1.80;;;;;;;12.47;34.79;101893.02;105489;1257;60415;-61
2023/12/16 03:19:24;;;;;;;8.40;3.20;;;;;;;12.43;34.80;101893.04;105493;1254;63998;-60
2023/12/16 03:21:51;;;;;;;8.30;3.80;;;;;;;12.43;34.81;101897.95;105534;1255;60545;-64
2023/12/16 03:24:18;;;;;;;10.20;2.90;;;;;;;12.43;34.85;101894.98;105479;1254;60562;-62
2023/12/16 03:26:45;;;;;;;6.50;2.70;;;;;;;12.42;34.88;101895.63;105562;1256;65155;-64
2023/12/16 03:29:12;;;;;;;8.00;3.20;;;;;;;12.41;34.95;101899.73;106280;1257;61441;-64
2023/12/16 03:31:39;;;;;;;9.10;3.90;;;;;;;12.36;34.95;101900.70;105595;1257;64078;-64
2023/12/16 03:34:06;;;;;;;7.20;3.00;;;;;;;12.33;34.97;101905.14;105462;1259;61725;-64
2023/12/16 03:36:33;;;;;;;6.90;2.20;;;;;;;12.39;35.03;101909.34;106549;1255;60456;-63
2023/12/16 03:39:00;;;;;;;7.10;2.80;;;;;;;12.47;35.01;101913.42;105743;1256;65858;-63
2023/12/16 03:41:27;;;;;;;9.70;2.70;;;;;;;12.56;35.05;101921.85;105898;1254;61647;-64
2023/12/16 03:43:53;;;;;;;9.00;2.50;;;;;;;12.64;34.98;101915.69;105466;1254;62796;-64
2023/12/16 03:46:21;;;;;;;9.40;3.50;;;;;;;12.70;34.93;101917.37;105520;1254;60479;-62
2023/12/16 03:48:48;;;;;;;8.70;4.90;;;;;;;12.74;34.89;101916.95;106118;1257;60396;-64
2023/12/16 03:51:15;;;;;;;10.20;3.60;;;;;;;12.72;34.92;101915.85;105518;1257;65209;-63
2023/12/16 03:53:42;;;;;;;8.00;3.00;;;;;;;12.67;34.94;101914.27;105531;1254;61634;-63
2023/12/16 03:56:09;;;;;;;8.30;3.60;;;;;;;12.59;35.06;101917.56;105626;1254;64569;-65
2023/12/16 03:58:36;;;;;;;8.40;3.60;;;;;;;12.53;35.27;101918.35;106501;1255;60438;-64
2023/12/16 04:01:04;;;;;;;10.90;4.30;;;;;;;12.48;35.31;101920.60;105760;1257;60466;-64
2023/12/16 04:03:31;;;;;;;11.60;6.00;;;;;;;12.47;35.42;101923.31;105736;1254;65116;-62
2023/12/16 04:05:58;;;;;;;9.10;3.00;;;;;;;12.48;35.39;101924.48;105857;1257;61776;-65
2023/12/16 04:08:24;;;;;;;10.20;3.70;;;;;;;12.48;35.44;101921.30;105413;1254;64066;-66
2023/12/16 04:10:51;;;;;;;11.00;4.00;;;;;;;12.47;35.39;101923.83;106020;1254;60542;-66
2023/12/16 04:13:18;;;;;;;8.20;3.00;;;;;;;12.45;35.49;101925.49;105918;1254;60441;-65
2023/12/16 04:15:51;;;;;;;6.50;2.50;;;;;;;12.45;35.49;101930.58;105178;1258;65723;-65
2023/12/16 04:18:18;;;;;;;12.40;5.00;;;;;;;12.53;35.41;101938.56;105953;1257;61751;-62
2023/12/16 04:20:45;;;;;;;9.00;3.70;;;;;;;12.60;35.49;101940.56;106167;1257;64088;-63
2023/12/16 04:23:12;;;;;;;9.80;3.00;;;;;;;12.64;35.35;101948.44;105463;1257;60414;-62
2023/12/16 04:25:38;;;;;;;8.30;3.50;;;;;;;12.64;35.32;101949.45;105357;1253;60626;-61
2023/12/16 04:28:05;;;;;;;10.60;4.80;;;;;;;12.63;35.35;101945.69;105463;1256;321132;-63
2023/12/16 04:42:26;;;;;;;12.40;5.50;;;;;;;11.12;38.66;101956.07;102875;1287;605180;-55
2023/12/16 04:44:54;;;;;;;11.00;5.20;;;;;;;13.04;35.07;101949.35;104670;1273;127036;-53
2023/12/16 04:47:21;;;;;;;12.00;5.40;;;;;;;12.97;35.15;101954.77;104371;1267;59383;-55
2023/12/16 04:49:49;;;;;;;10.20;5.80;;;;;;;12.89;35.21;101955.81;105093;1269;72100;-56
2023/12/16 04:52:18;;;;;;;12.70;4.80;;;;;;;12.84;35.37;101950.49;104429;1271;60392;-54
2023/12/16 04:54:46;;;;;;;9.00;4.00;;;;;;;12.78;35.39;101946.09;104497;1271;62474;-55
2023/12/16 04:57:14;;;;;;;7.90;3.50;;;;;;;12.78;35.49;101942.10;104492;1271;59615;-54
2023/12/16 04:59:42;;;;;;;11.90;4.10;;;;;;;12.84;35.44;101937.12;105262;1270;59450;-52
2023/12/16 05:02:09;;;;;;;16.40;6.00;;;;;;;12.90;35.54;101940.23;104355;1271;63993;-50
2023/12/16 05:04:37;;;;;;;11.30;4.50;;;;;;;13.00;35.54;101939.80;104418;1271;60394;-52
2023/12/16 05:07:05;;;;;;;11.10;5.10;;;;;;;13.07;35.52;101947.02;104392;1266;75030;-50
2023/12/16 05:09:32;;;;;;;9.10;4.60;;;;;;;13.11;35.33;101949.60;104398;1266;59731;-53
2023/12/16 05:12:00;;;;;;;12.00;5.40;;;;;;;13.13;35.28;101948.63;104752;1267;59676;-54
2023/12/16 05:14:29;;;;;;;11.10;5.60;;;;;;;13.10;35.24;101951.65;104432;1268;64116;-55
2023/12/16 05:16:59;;;;;;;11.40;4.20;;;;;;;13.04;35.25;101955.02;104923;1266;61389;-54
2023/12/16 05:19:26;;;;;;;13.50;5.40;;;;;;;12.97;35.41;101953.34;104897;1268;64499;-54
2023/12/16 05:21:55;;;;;;;12.70;5.50;;;;;;;12.95;35.42;101957.17;104925;1268;59779;-55
2023/12/16 05:24:22;;;;;;;10.40;3.50;;;;;;;12.96;35.43;101954.10;104506;1271;59669;-57
2023/12/16 05:26:50;;;;;;;12.30;4.80;;;;;;;12.97;35.41;101957.41;105104;1270;64134;-56
2023/12/16 05:29:18;;;;;;;13.70;6.10;;;;;;;12.95;35.40;101957.01;104525;1268;61874;-55
2023/12/16 05:31:45;;;;;;;16.30;6.00;;;;;;;12.94;35.51;101958.67;104422;1269;63967;-55
2023/12/16 05:34:13;;;;;;;13.50;4.90;;;;;;;12.94;35.46;101959.33;104418;1266;59660;-52
2023/12/16 05:36:41;;;;;;;11.20;4.80;;;;;;;12.97;35.46;101953.55;104478;1265;59825;-55
2023/12/16 05:39:09;;;;;;;12.60;5.50;;;;;;;13.04;35.33;101954.11;105509;1269;63863;-56
2023/12/16 05:41:37;;;;;;;11.70;4.00;;;;;;;13.10;35.21;101957.80;104467;1269;61361;-55
2023/12/16 05:44:05;;;;;;;8.10;3.00;;;;;;;13.17;35.18;101965.05;104288;1269;63731;-53
2023/12/16 05:46:32;;;;;;;12.30;4.40;;;;;;;13.23;35.09;101966.63;104400;1271;59772;-54
2023/12/16 05:49:00;;;;;;;10.60;4.60;;;;;;;13.29;35.14;101968.91;104186;1271;60587;-55
2023/12/16 05:51:27;;;;;;;12.20;4.50;;;;;;;13.31;35.05;101974.38;104215;1271;62918;-58
2023/12/16 05:53:55;;;;;;;10.70;5.90;;;;;;;13.28;35.11;101972.81;104265;1266;61824;-58
2023/12/16 05:56:23;;;;;;;11.60;5.30;;;;;;;13.25;35.04;101973.54;104834;1270;63721;-58
2023/12/16 05:58:51;;;;;;;12.60;5.10;;;;;;;13.18;35.01;101976.81;104865;1269;59777;-55
2023/12/16 06:01:20;;;;;;;12.60;6.10;;;;;;;13.10;35.12;101977.19;104107;1269;59539;-55
2023/12/16 06:03:48;;;;;;;12.60;5.50;;;;;;;13.06;35.17;101978.13;105014;1270;63024;-58
2023/12/16 06:06:16;;;;;;;15.20;5.60;;;;;;;13.03;35.29;101982.41;104238;1271;61371;-58
2023/12/16 06:08:44;;;;;;;13.50;4.30;;;;;;;12.98;35.29;101981.98;104274;1268;63739;-58
2023/12/16 06:11:14;;;;;;;15.50;5.40;;;;;;;12.96;35.35;101980.37;104523;1271;59759;-56
2023/12/16 06:13:42;;;;;;;15.50;6.20;;;;;;;12.93;35.47;101976.67;104448;1267;59754;-57
2023/12/16 06:16:13;;;;;;;11.70;4.30;;;;;;;12.93;35.40;101975.95;104320;1266;62902;-57
2023/12/16 06:18:47;;;;;;;15.30;6.20;;;;;;;13.03;35.30;101984.88;104386;1270;60319;-57
2023/12/16 06:21:15;;;;;;;13.50;6.20;;;;;;;13.12;35.29;101987.45;104486;1265;63671;-58
2023/12/16 06:23:42;;;;;;;14.60;4.80;;;;;;;13.18;35.24;101988.06;104411;1266;59858;-57
2023/12/16 06:26:10;;;;;;;17.20;7.20;;;;;;;13.23;35.10;101991.84;104459;1266;60554;-57
2023/12/16 06:28:38;;;;;;;15.80;6.70;;;;;;;13.26;35.14;101990.58;104455;1271;62858;-58
2023/12/16 06:31:05;;;;;;;15.60;6.30;;;;;;;13.30;35.10;101990.69;104472;1266;61328;-56
2023/12/16 06:33:33;;;;;;;12.70;6.50;;;;;;;13.29;35.14;101988.80;104682;1268;62534;-55
2023/12/16 06:36:01;;;;;;;12.10;5.80;;;;;;;13.28;35.10;101992.94;104392;1269;59774;-56
2023/12/16 06:38:30;;;;;;;14.50;6.00;;;;;;;13.28;35.10;101994.52;104426;1269;59674;-56
2023/12/16 06:40:58;;;;;;;13.50;6.10;;;;;;;13.28;35.07;101993.45;105574;1267;62962;-57
2023/12/16 06:43:26;;;;;;;12.80;5.40;;;;;;;13.25;35.11;101993.11;104817;1271;60294;-56
2023/12/16 06:45:54;;;;;;;19.80;7.40;;;;;;;13.24;35.10;102001.98;105113;1271;62763;-55
2023/12/16 06:48:25;;;;;;;22.40;10.00;;;;;;;13.20;35.14;102007.15;104379;1271;59662;-57
2023/12/16 06:50:57;;;;;;;17.50;8.90;;;;;;;13.14;35.04;102013.16;104424;1271;59667;-56
2023/12/16 06:53:25;;;;;;;21.40;8.30;;;;;;;13.15;35.08;102012.26;105124;1271;62917;-55
2023/12/16 06:55:53;;;;;;;15.40;6.70;;;;;;;13.22;35.12;102019.23;104933;1271;61598;-56
2023/12/16 06:58:21;;;;;;;13.80;5.50;;;;;;;13.27;35.08;102023.14;105026;1263;63017;-56
2023/12/16 07:00:49;;;;;;;15.70;7.10;;;;;;;13.36;34.93;102022.22;105434;1264;59760;-56
2023/12/16 07:03:16;;;;;;;14.60;6.00;;;;;;;13.43;34.84;102015.23;104919;1265;60206;-56
2023/12/16 07:05:44;;;;;;;17.30;7.90;;;;;;;13.44;34.88;102010.79;104902;1261;62845;-54
2023/12/16 07:08:13;;;;;;;19.10;6.30;;;;;;;13.42;34.90;102018.44;105045;1265;60257;-55
2023/12/16 07:10:40;;;;;;;14.20;5.60;;;;;;;13.42;34.90;102025.50;104984;1264;63802;-56
2023/12/16 07:13:08;;;;;;;16.10;6.00;;;;;;;13.42;34.87;102018.45;104927;1264;60753;-56
2023/12/16 07:15:37;;;;;;;12.30;5.60;;;;;;;13.40;34.81;102016.31;104972;1265;59594;-55
2023/12/16 07:18:04;;;;;;;15.50;6.30;;;;;;;13.42;34.78;102017.98;104965;1265;64139;-55
2023/12/16 07:20:32;;;;;;;14.00;6.20;;;;;;;13.41;34.77;102020.11;104928;1265;60275;-59
2023/12/16 07:23:00;;;;;;;18.90;9.00;;;;;;;13.37;34.74;102021.47;105126;1263;63710;-57
2023/12/16 07:25:28;;;;;;;21.50;10.30;;;;;;;13.28;34.80;102023.38;104910;1262;59731;-57
2023/12/16 07:27:55;;;;;;;21.20;8.90;;;;;;;13.27;34.88;102029.60;104886;1265;59649;-57
2023/12/16 07:30:23;;;;;;;18.80;6.90;;;;;;;13.26;34.93;102031.26;104872;1265;64485;-57
2023/12/16 07:32:50;;;;;;;14.80;6.20;;;;;;;13.29;35.04;102033.91;104898;1265;63086;-57
2023/12/16 07:35:19;;;;;;;16.20;7.00;;;;;;;13.40;34.85;102032.69;105610;1265;62618;-56
2023/12/16 07:37:46;;;;;;;11.90;6.00;;;;;;;13.51;34.74;102027.58;105566;1262;62046;-55
2023/12/16 07:40:14;;;;;;;12.20;6.00;;;;;;;13.53;34.75;102028.27;104874;1261;59754;-55
2023/12/16 07:42:41;;;;;;;12.50;5.90;;;;;;;13.54;34.69;102027.16;105559;1265;64090;-56
2023/12/16 07:45:10;;;;;;;15.10;5.80;;;;;;;13.55;34.60;102022.55;104954;1265;60149;-56
2023/12/16 07:47:38;;;;;;;14.20;7.40;;;;;;;13.55;34.53;102029.79;104989;1265;64328;-56
2023/12/16 07:50:07;;;;;;;15.70;6.30;;;;;;;13.55;34.62;102039.45;105071;1260;59797;-57
2023/12/16 07:52:34;;;;;;;14.70;5.90;;;;;;;13.59;34.68;102044.00;105191;1264;59868;-55
2023/12/16 07:55:03;;;;;;;13.60;6.40;;;;;;;13.63;34.54;102047.60;104905;1265;62862;-56
2023/12/16 07:57:30;;;;;;;16.10;7.10;;;;;;;13.66;34.66;102049.31;105182;1265;61537;-58
2023/12/16 07:59:58;;;;;;;11.90;5.50;;;;;;;13.68;34.49;102052.73;104931;1262;63749;-55
2023/12/16 08:02:26;;;;;;;16.50;6.60;;;;;;;13.68;34.49;102047.39;104890;1264;59779;-56
2023/12/16 08:04:53;;;;;;;15.60;7.50;;;;;;;13.67;34.64;102042.05;104906;1264;59562;-55
2023/12/16 08:07:21;;;;;;;14.30;6.00;;;;;;;13.67;34.71;102038.35;104889;1265;64074;-57
2023/12/16 08:09:49;;;;;;;13.20;4.40;;;;;;;13.70;34.59;102036.48;104853;1268;60239;-57
2023/12/16 08:12:17;;;;;;;11.80;3.80;;;;;;;13.79;34.51;102045.98;105525;1264;62641;-57
2023/12/16 08:14:44;;;;;;;14.50;5.00;;;;;;;13.84;34.37;102046.16;104808;1262;59709;-56
2023/12/16 08:17:12;;;;;;;11.70;3.90;;;;;;;13.90;34.28;102042.02;104940;1266;59571;-55
2023/12/16 08:19:40;;;;;;;15.20;4.90;;;;;;;13.92;34.16;102039.48;104987;1265;64077;-53
2023/12/16 08:22:07;;;;;;;13.10;6.60;;;;;;;13.90;34.18;102034.33;104883;1264;60261;-52
2023/12/16 08:24:35;;;;;;;15.10;5.00;;;;;;;13.87;34.31;102028.48;104943;1263;62680;-56
2023/12/16 08:27:03;;;;;;;14.50;5.20;;;;;;;13.86;34.43;102027.89;104932;1264;59498;-54
2023/12/16 08:29:31;;;;;;;11.30;5.40;;;;;;;13.82;34.49;102028.30;105211;1263;59821;-54
2023/12/16 08:31:59;;;;;;;17.00;6.30;;;;;;;13.84;34.60;102022.55;105160;1265;64065;-55
2023/12/16 08:34:27;;;;;;;19.10;7.20;;;;;;;13.87;34.63;102022.65;105263;1264;64184;-60
2023/12/16 08:36:54;;;;;;;13.50;6.50;;;;;;;13.90;34.57;102020.52;104844;1266;62792;-56
2023/12/16 08:39:22;;;;;;;17.70;7.20;;;;;;;13.96;34.52;102027.06;105362;1261;59636;-57
2023/12/16 08:41:50;;;;;;;14.90;6.10;;;;;;;13.98;34.49;102028.54;104834;1274;59717;-61
2023/12/16 08:44:17;;;;;;;12.70;5.30;;;;;;;14.02;34.45;102017.80;104919;1265;64138;-57
2023/12/16 08:46:45;;;;;;;12.60;4.90;;;;;;;14.15;34.38;102011.29;104852;1264;61347;-57
2023/12/16 08:49:13;;;;;;;13.50;5.10;;;;;;;14.25;34.18;102005.10;104879;1260;63795;-56
2023/12/16 08:51:41;;;;;;;15.80;6.50;;;;;;;14.30;34.15;102005.08;104918;1260;60471;-56
2023/12/16 08:54:09;;;;;;;16.40;8.60;;;;;;;14.30;34.06;102004.89;104876;1265;62694;-64
2023/12/16 08:56:36;;;;;;;15.70;6.10;;;;;;;14.28;34.18;102004.17;104842;1274;64920;-63
2023/12/16 08:59:04;;;;;;;19.30;7.30;;;;;;;14.27;34.27;102010.23;105032;1267;60497;-64
2023/12/16 09:01:32;;;;;;;17.70;6.00;;;;;;;14.33;34.30;102011.75;104828;1266;62996;-64
2023/12/16 09:04:00;;;;;;;14.10;6.70;;;;;;;14.37;34.31;102004.42;104874;1265;60505;-64
2023/12/16 09:06:28;;;;;;;14.40;5.80;;;;;;;14.37;34.27;101994.73;104913;1265;60367;-61
2023/12/16 09:09:01;;;;;;;15.00;7.10;;;;;;;14.31;34.37;101990.16;104896;1266;64935;-60
2023/12/16 09:11:28;;;;;;;14.00;7.40;;;;;;;14.28;34.36;101993.24;105269;1265;60107;-64
2023/12/16 09:13:56;;;;;;;12.60;5.70;;;;;;;14.28;34.38;101997.11;105336;1263;63766;-62
2023/12/16 09:16:24;;;;;;;16.20;8.00;;;;;;;14.27;34.51;102001.20;104856;1260;60694;-61
2023/12/16 09:18:52;;;;;;;14.00;5.90;;;;;;;14.27;34.56;101996.80;105427;1264;60570;-61
2023/12/16 09:21:20;;;;;;;11.00;5.10;;;;;;;14.30;34.51;101992.87;105545;1266;63913;-62
2023/12/16 09:23:48;;;;;;;11.50;5.70;;;;;;;14.41;34.31;101991.27;105585;1264;60635;-62
2023/12/16 09:26:16;;;;;;;13.60;6.10;;;;;;;14.53;34.36;101996.61;104968;1265;63752;-62
2023/12/16 09:28:43;;;;;;;12.30;5.20;;;;;;;14.62;34.09;101995.84;104908;1261;60514;-62
2023/12/16 09:31:11;;;;;;;15.90;7.10;;;;;;;14.62;33.98;101994.76;104912;1264;60454;-63
2023/12/16 09:33:39;;;;;;;14.80;7.10;;;;;;;14.62;34.16;101997.60;104828;1264;63819;-62
2023/12/16 09:36:11;;;;;;;13.40;6.30;;;;;;;14.61;34.27;101999.76;105822;1262;61530;-62
2023/12/16 09:38:42;;;;;;;11.80;5.90;;;;;;;14.61;34.24;101999.41;104929;1264;62570;-63
2023/12/16 09:41:37;;;;;;;20.40;6.70;;;;;;;14.58;34.34;101991.31;104924;1263;60487;-62
2023/12/16 09:44:05;;;;;;;14.20;6.10;;;;;;;14.55;34.27;101987.31;104926;1264;60539;-62
2023/12/16 09:46:33;;;;;;;15.90;6.20;;;;;;;14.56;34.36;101984.40;105188;1260;65012;-60
2023/12/16 09:49:01;;;;;;;15.00;6.00;;;;;;;14.56;34.43;101982.80;105072;1260;61570;-63
2023/12/16 09:51:28;;;;;;;17.40;7.90;;;;;;;14.54;34.38;101987.35;104860;1265;63710;-62
2023/12/16 09:53:56;;;;;;;16.70;6.70;;;;;;;14.53;34.45;101987.27;104906;1264;60974;-62
2023/12/16 09:56:24;;;;;;;14.40;7.40;;;;;;;14.53;34.60;101986.75;105421;1261;60512;-62
2023/12/16 09:58:52;;;;;;;13.30;6.40;;;;;;;14.53;34.49;101983.56;104773;1265;63709;-62
2023/12/16 10:01:20;;;;;;;13.50;6.00;;;;;;;14.60;34.47;101988.01;104662;1265;61584;-62
2023/12/16 10:03:48;;;;;;;16.50;6.70;;;;;;;14.62;34.54;101987.83;105527;1265;62524;-62
2023/12/16 10:06:16;;;;;;;13.50;5.60;;;;;;;14.64;34.54;101988.77;104826;1261;61591;-62
2023/12/16 10:08:44;;;;;;;13.80;5.30;;;;;;;14.69;34.60;101983.15;104938;1261;60751;-62
2023/12/16 10:11:12;;;;;;;12.60;6.20;;;;;;;14.75;34.52;101978.80;104927;1265;63715;-61
2023/12/16 10:13:55;;;;;;;15.00;6.70;;;;;;;14.80;34.50;101974.60;104989;1271;60569;-61
2023/12/16 10:16:24;;;;;;;14.20;5.40;;;;;;;14.74;34.43;101974.13;105349;1264;63701;-62
2023/12/16 10:18:52;;;;;;;16.80;7.60;;;;;;;14.66;34.49;101965.48;104866;1260;60577;-61
2023/12/16 10:21:22;;;;;;;14.80;7.50;;;;;;;14.61;34.55;101962.36;105485;1261;60568;-62
2023/12/16 10:23:53;;;;;;;18.50;8.10;;;;;;;14.58;34.69;101958.67;105448;1263;64922;-62
2023/12/16 10:26:20;;;;;;;14.60;7.50;;;;;;;14.58;34.72;101954.08;105521;1261;60127;-62
2023/12/16 10:28:50;;;;;;;20.20;9.30;;;;;;;14.56;34.71;101956.25;104921;1265;63726;-62
2023/12/16 10:31:21;;;;;;;14.60;5.80;;;;;;;14.56;34.84;101950.65;104980;1264;60565;-61
2023/12/16 10:33:49;;;;;;;12.20;5.20;;;;;;;14.67;34.61;101950.05;105480;1263;60469;-61
2023/12/16 10:36:17;;;;;;;12.40;5.80;;;;;;;14.81;34.57;101939.87;104923;1265;63730;-61
2023/12/16 10:38:46;;;;;;;12.40;4.80;;;;;;;14.91;34.64;101932.23;104848;1266;60264;-62
2023/12/16 10:41:13;;;;;;;16.00;6.60;;;;;;;15.01;34.66;101930.10;104876;1261;63686;-61
2023/12/16 10:43:41;;;;;;;16.50;6.30;;;;;;;15.05;34.46;101931.39;105008;1264;60634;-62
2023/12/16 10:46:09;;;;;;;14.90;6.00;;;;;;;15.09;34.40;101931.81;104956;1264;61632;-62
2023/12/16 10:48:37;;;;;;;9.70;5.30;;;;;;;15.10;34.44;101928.21;104862;1260;63716;-63
2023/12/16 10:51:05;;;;;;;12.50;5.70;;;;;;;15.04;34.41;101927.40;104868;1266;60579;-60
2023/12/16 10:53:36;;;;;;;31.50;14.30;;;;;;;14.98;34.61;101926.41;105099;1260;63695;-62
2023/12/16 10:56:10;;;;;;;16.30;8.40;;;;;;;14.96;34.60;101930.28;104882;1264;60537;-62
2023/12/16 10:58:48;;;;;;;23.60;9.30;;;;;;;15.00;34.75;101931.20;105096;1262;60437;-62
2023/12/16 11:01:19;;;;;;;18.70;10.80;;;;;;;15.09;34.61;101928.98;105517;1266;65487;-62
2023/12/16 11:03:47;;;;;;;25.30;17.80;;;;;;;15.12;34.62;101923.27;104827;1260;60556;-61
2023/12/16 11:06:17;;;;;;;14.00;6.20;;;;;;;15.13;34.68;101924.05;104909;1264;62532;-61
2023/12/16 11:08:44;;;;;;;11.20;4.40;;;;;;;15.17;34.42;101920.56;104945;1260;60445;-62
2023/12/16 11:11:12;;;;;;;11.30;4.40;;;;;;;15.15;34.58;101917.90;104917;1260;60545;-61
2023/12/16 11:13:40;;;;;;;14.20;6.10;;;;;;;15.18;34.69;101919.08;104961;1260;64910;-62
2023/12/16 11:16:13;;;;;;;14.80;5.50;;;;;;;15.27;34.65;101918.05;104785;1261;61342;-62
2023/12/16 11:18:42;;;;;;;15.70;7.70;;;;;;;15.33;34.53;101909.13;104838;1267;62600;-63
2023/12/16 11:21:13;;;;;;;14.30;6.10;;;;;;;15.33;34.58;101912.28;104887;1261;60899;-64
2023/12/16 11:23:44;;;;;;;13.80;5.60;;;;;;;15.27;34.55;101911.02;104913;1261;60576;-61
2023/12/16 11:26:12;;;;;;;15.60;7.10;;;;;;;15.26;34.65;101907.02;104949;1264;63727;-62